createdAt,value
2022-12-22T00:00:08.918Z,6.22
2022-12-22T00:02:54.297Z,6.25
2022-12-22T00:05:41.625Z,6.30
2022-12-22T00:08:27.463Z,6.36
2022-12-22T00:11:14.671Z,6.34
2022-12-22T00:14:02.706Z,6.39
2022-12-22T00:16:53.568Z,6.42
2022-12-22T00:19:39.754Z,6.34
2022-12-22T00:22:35.464Z,6.29
2022-12-22T00:25:20.995Z,6.27
2022-12-22T00:28:06.420Z,6.24
2022-12-22T00:30:51.775Z,6.30
2022-12-22T00:33:38.813Z,6.23
2022-12-22T00:36:26.355Z,6.19
2022-12-22T00:39:11.574Z,6.13
2022-12-22T00:41:56.984Z,6.08
2022-12-22T00:44:42.346Z,6.10
2022-12-22T00:47:37.252Z,6.02
2022-12-22T00:50:23.477Z,6.04
2022-12-22T00:53:08.940Z,6.04
2022-12-22T00:55:54.219Z,5.98
2022-12-22T00:58:39.435Z,6.04
2022-12-22T01:01:24.983Z,5.97
2022-12-22T01:04:10.406Z,6.05
2022-12-22T01:06:55.709Z,6.00
2022-12-22T01:09:42.096Z,5.99
2022-12-22T01:12:39.966Z,5.96
2022-12-22T01:15:31.559Z,5.95
2022-12-22T01:18:16.832Z,5.93
2022-12-22T01:21:02.148Z,5.92
2022-12-22T01:23:47.417Z,5.91
2022-12-22T01:26:32.881Z,5.90
2022-12-22T01:29:18.273Z,5.87
2022-12-22T01:32:03.637Z,5.87
2022-12-22T01:34:48.810Z,5.87
2022-12-22T01:37:34.300Z,5.77
2022-12-22T01:40:19.796Z,5.74
2022-12-22T01:43:04.929Z,5.72
2022-12-22T01:45:54.332Z,5.64
2022-12-22T01:48:48.830Z,5.68
2022-12-22T01:51:45.851Z,5.84
2022-12-22T01:54:33.018Z,5.85
2022-12-22T01:57:18.847Z,5.85
2022-12-22T02:00:04.039Z,5.77
2022-12-22T02:02:51.483Z,5.85
2022-12-22T02:05:38.638Z,5.82
2022-12-22T02:08:42.774Z,5.86
2022-12-22T02:11:51.024Z,5.83
2022-12-22T02:15:01.541Z,5.89
2022-12-22T02:18:08.154Z,5.98
2022-12-22T02:21:01.776Z,5.87
2022-12-22T02:23:59.376Z,5.86
2022-12-22T02:26:52.171Z,5.84
2022-12-22T02:29:43.523Z,5.78
2022-12-22T02:32:29.834Z,5.85
2022-12-22T02:35:15.724Z,5.83
2022-12-22T02:38:21.355Z,5.79
2022-12-22T02:41:17.995Z,5.83
2022-12-22T02:44:44.962Z,5.78
2022-12-22T02:47:46.194Z,5.82
2022-12-22T02:50:44.304Z,5.96
2022-12-22T02:53:32.165Z,5.91
2022-12-22T02:56:21.072Z,5.84
2022-12-22T02:59:10.258Z,5.81
2022-12-22T03:01:57.408Z,5.84
2022-12-22T03:04:42.843Z,5.91
2022-12-22T03:07:28.217Z,5.90
2022-12-22T03:10:13.392Z,5.85
2022-12-22T03:12:58.675Z,5.80
2022-12-22T03:15:44.000Z,5.85
2022-12-22T03:18:30.922Z,5.92
2022-12-22T03:21:16.612Z,5.87
2022-12-22T03:24:02.439Z,5.96
2022-12-22T03:26:30.122Z,5.92
2022-12-22T03:28:56.874Z,5.97
2022-12-22T03:31:23.702Z,5.99
2022-12-22T03:33:50.449Z,5.98
2022-12-22T03:36:17.202Z,5.94
2022-12-22T03:38:43.924Z,5.93
2022-12-22T03:41:30.646Z,5.98
2022-12-22T03:44:16.030Z,6.04
2022-12-22T03:46:42.782Z,6.00
2022-12-22T03:49:12.525Z,6.00
2022-12-22T03:51:46.557Z,5.99
2022-12-22T03:54:22.476Z,5.97
2022-12-22T03:56:49.788Z,6.02
2022-12-22T03:59:17.650Z,5.99
2022-12-22T04:01:47.123Z,5.97
2022-12-22T04:04:15.503Z,5.97
2022-12-22T04:06:42.959Z,6.00
2022-12-22T04:09:10.073Z,5.98
2022-12-22T04:12:12.202Z,5.96
2022-12-22T04:14:39.747Z,5.94
2022-12-22T04:17:07.164Z,5.96
2022-12-22T04:19:34.250Z,5.93
2022-12-22T04:22:01.340Z,5.95
2022-12-22T04:24:28.053Z,5.98
2022-12-22T04:26:54.805Z,6.00
2022-12-22T04:29:21.445Z,6.02
2022-12-22T04:31:48.221Z,5.98
2022-12-22T04:34:15.047Z,6.02
2022-12-22T04:36:41.694Z,6.07
2022-12-22T04:39:08.468Z,6.02
2022-12-22T04:41:35.139Z,6.05
2022-12-22T04:44:02.111Z,6.15
2022-12-22T04:46:28.892Z,6.09
2022-12-22T04:48:59.831Z,6.07
2022-12-22T04:51:27.738Z,6.11
2022-12-22T04:53:54.454Z,6.12
2022-12-22T04:56:21.434Z,6.14
2022-12-22T04:58:48.085Z,6.12
2022-12-22T05:01:18.399Z,6.13
2022-12-22T05:03:45.772Z,6.13
2022-12-22T05:06:13.134Z,6.15
2022-12-22T05:08:40.057Z,6.14
2022-12-22T05:11:07.345Z,6.17
2022-12-22T05:13:34.108Z,6.21
2022-12-22T05:16:10.173Z,6.22
2022-12-22T05:18:38.096Z,6.22
2022-12-22T05:21:16.582Z,6.28
2022-12-22T05:23:44.055Z,6.30
2022-12-22T05:26:14.447Z,6.31
2022-12-22T05:28:42.596Z,6.33
2022-12-22T05:31:14.238Z,6.35
2022-12-22T05:33:41.084Z,6.38
2022-12-22T05:36:08.230Z,6.37
2022-12-22T05:38:35.182Z,6.36
2022-12-22T05:41:04.628Z,6.38
2022-12-22T05:43:32.696Z,6.35
2022-12-22T05:46:08.047Z,6.40
2022-12-22T05:48:38.568Z,6.37
2022-12-22T05:51:10.026Z,6.36
2022-12-22T05:53:38.893Z,6.36
2022-12-22T05:56:06.531Z,6.36
2022-12-22T05:58:34.906Z,6.38
2022-12-22T06:01:01.800Z,6.36
2022-12-22T06:03:29.760Z,6.40
2022-12-22T06:05:57.891Z,6.44
2022-12-22T06:08:25.128Z,6.56
2022-12-22T06:10:55.047Z,6.45
2022-12-22T06:13:21.976Z,6.45
2022-12-22T06:15:49.203Z,6.43
2022-12-22T06:18:16.125Z,6.41
2022-12-22T06:20:42.862Z,6.42
2022-12-22T06:23:09.640Z,6.48
2022-12-22T06:25:36.319Z,6.44
2022-12-22T06:28:03.098Z,6.41
2022-12-22T06:30:33.620Z,6.43
2022-12-22T06:33:01.218Z,6.45
2022-12-22T06:35:28.553Z,6.44
2022-12-22T06:37:55.382Z,6.46
2022-12-22T06:40:22.335Z,6.41
2022-12-22T06:43:09.025Z,6.49
2022-12-22T06:45:39.398Z,6.44
2022-12-22T06:48:07.939Z,6.44
2022-12-22T06:50:34.832Z,6.43
2022-12-22T06:53:02.009Z,6.43
2022-12-22T06:55:28.841Z,6.49
2022-12-22T06:57:55.510Z,6.50
2022-12-22T07:00:22.486Z,6.49
2022-12-22T07:02:49.550Z,6.46
2022-12-22T07:05:16.867Z,6.49
2022-12-22T07:07:43.844Z,6.48
2022-12-22T07:10:10.738Z,6.46
2022-12-22T07:12:37.491Z,6.44
2022-12-22T07:15:04.793Z,6.45
2022-12-22T07:17:31.485Z,6.49
2022-12-22T07:19:58.166Z,6.50
2022-12-22T07:22:29.777Z,6.46
2022-12-22T07:24:57.936Z,6.52
2022-12-22T07:27:24.716Z,6.54
2022-12-22T07:29:51.394Z,6.54
2022-12-22T07:32:18.042Z,6.49
2022-12-22T07:34:45.137Z,6.55
2022-12-22T07:37:13.648Z,6.57
2022-12-22T07:39:40.509Z,6.57
2022-12-22T07:42:25.617Z,6.60
2022-12-22T07:44:52.350Z,6.61
2022-12-22T07:47:19.140Z,6.56
2022-12-22T07:50:04.362Z,6.56
2022-12-22T07:52:31.391Z,6.60
2022-12-22T07:54:58.157Z,6.58
2022-12-22T07:57:26.213Z,6.63
2022-12-22T07:59:53.999Z,6.64
2022-12-22T08:02:20.860Z,6.63
2022-12-22T08:04:47.693Z,6.70
2022-12-22T08:07:14.435Z,6.65
2022-12-22T08:09:41.093Z,6.70
2022-12-22T08:12:10.886Z,6.64
2022-12-22T08:14:37.600Z,6.69
2022-12-22T08:17:04.305Z,6.73
2022-12-22T08:19:32.806Z,6.72
2022-12-22T08:22:00.783Z,6.66
2022-12-22T08:24:27.598Z,6.74
2022-12-22T08:26:59.611Z,6.76
2022-12-22T08:29:33.919Z,6.72
2022-12-22T08:32:01.480Z,6.73
2022-12-22T08:34:28.687Z,6.79
2022-12-22T08:36:59.275Z,6.76
2022-12-22T08:39:28.927Z,6.79
2022-12-22T08:41:55.704Z,6.86
2022-12-22T08:44:28.056Z,6.86
2022-12-22T08:46:56.872Z,6.86
2022-12-22T08:49:24.305Z,6.93
2022-12-22T08:51:51.443Z,6.91
2022-12-22T08:54:18.975Z,6.97
2022-12-22T08:56:45.731Z,6.97
2022-12-22T08:59:13.228Z,6.97
2022-12-22T09:01:44.233Z,7.01
2022-12-22T09:04:16.414Z,7.08
2022-12-22T09:06:43.217Z,7.11
2022-12-22T09:09:12.336Z,7.07
2022-12-22T09:11:40.330Z,7.12
2022-12-22T09:14:10.890Z,7.11
2022-12-22T09:16:39.000Z,7.13
2022-12-22T09:19:06.795Z,7.13
2022-12-22T09:21:34.346Z,7.16
2022-12-22T09:24:04.543Z,7.18
2022-12-22T09:26:32.497Z,7.26
2022-12-22T09:28:59.874Z,7.23
2022-12-22T09:31:27.216Z,7.23
2022-12-22T09:33:54.029Z,7.30
2022-12-22T09:36:24.622Z,7.19
2022-12-22T09:38:51.630Z,7.25
2022-12-22T09:41:21.268Z,7.25
2022-12-22T09:43:48.196Z,7.24
2022-12-22T09:46:27.127Z,7.19
2022-12-22T09:48:55.013Z,7.26
2022-12-22T09:51:27.095Z,7.22
2022-12-22T09:53:59.272Z,7.20
2022-12-22T09:56:27.900Z,7.27
2022-12-22T09:58:54.903Z,7.29
2022-12-22T10:01:54.503Z,7.37
2022-12-22T10:04:27.387Z,7.29
2022-12-22T10:07:06.283Z,7.27
2022-12-22T10:09:52.199Z,7.27
2022-12-22T10:12:26.141Z,7.22
2022-12-22T10:14:54.334Z,7.18
2022-12-22T10:17:33.623Z,7.22
2022-12-22T10:20:19.209Z,7.25
2022-12-22T10:22:48.395Z,7.22
2022-12-22T10:25:52.583Z,7.25
2022-12-22T10:28:33.363Z,7.30
2022-12-22T10:31:11.000Z,7.23
2022-12-22T10:33:45.860Z,7.26
2022-12-22T10:36:16.591Z,7.33
2022-12-22T10:38:57.429Z,7.34
2022-12-22T10:41:27.486Z,7.37
2022-12-22T10:44:05.071Z,7.42
2022-12-22T10:46:38.911Z,7.40
2022-12-22T10:52:16.903Z,7.50
2022-12-22T10:54:45.586Z,7.48
2022-12-22T10:57:15.347Z,7.52
2022-12-22T10:59:52.720Z,7.60
2022-12-22T11:02:26.917Z,7.63
2022-12-22T11:05:00.379Z,7.59
2022-12-22T11:07:31.291Z,7.59
2022-12-22T11:09:58.197Z,7.49
2022-12-22T11:12:48.264Z,7.47
2022-12-22T11:15:27.829Z,7.46
2022-12-22T11:18:14.091Z,7.43
2022-12-22T11:21:03.102Z,7.50
2022-12-22T11:23:57.112Z,7.57
2022-12-22T11:26:29.591Z,7.55
2022-12-22T11:28:59.288Z,7.61
2022-12-22T11:31:34.589Z,7.62
2022-12-22T11:34:31.774Z,7.60
2022-12-22T11:37:13.672Z,7.60
2022-12-22T11:39:46.409Z,7.59
2022-12-22T11:42:50.809Z,7.56
2022-12-22T11:45:43.666Z,7.61
2022-12-22T11:48:55.083Z,7.71
2022-12-22T11:51:46.194Z,7.63
2022-12-22T11:54:41.376Z,7.75
2022-12-22T11:57:33.724Z,7.76
2022-12-22T12:00:19.394Z,7.83
2022-12-22T12:03:07.802Z,7.85
2022-12-22T12:05:37.637Z,7.83
2022-12-22T12:08:21.799Z,7.87
2022-12-22T12:11:18.564Z,7.97
2022-12-22T12:14:01.013Z,7.97
2022-12-22T12:16:40.029Z,7.96
2022-12-22T12:19:06.828Z,8.06
2022-12-22T12:21:33.694Z,8.12
2022-12-22T12:24:26.597Z,8.14
2022-12-22T12:27:24.868Z,8.27
2022-12-22T12:33:23.991Z,8.34
2022-12-22T12:36:20.209Z,8.90
2022-12-22T12:39:07.558Z,8.96
2022-12-22T12:41:41.116Z,8.71
2022-12-22T12:44:14.472Z,8.63
2022-12-22T12:46:50.620Z,8.49
2022-12-22T12:49:36.211Z,8.53
2022-12-22T12:52:04.077Z,8.46
2022-12-22T12:54:41.471Z,8.47
2022-12-22T12:57:30.529Z,8.47
2022-12-22T12:59:59.712Z,8.43
2022-12-22T13:02:38.305Z,8.49
2022-12-22T13:05:26.954Z,8.44
2022-12-22T13:08:25.674Z,8.46
2022-12-22T13:10:55.477Z,8.52
2022-12-22T13:13:22.224Z,8.50
2022-12-22T13:16:02.378Z,8.50
2022-12-22T13:18:29.645Z,8.43
2022-12-22T13:21:51.677Z,8.37
2022-12-22T13:24:25.340Z,8.29
2022-12-22T13:26:55.362Z,8.41
2022-12-22T13:29:23.791Z,8.35
2022-12-22T13:31:52.671Z,8.12
2022-12-22T13:34:22.562Z,8.11
2022-12-22T13:36:51.072Z,7.89
2022-12-22T13:39:17.788Z,7.91
2022-12-22T13:41:47.197Z,7.85
2022-12-22T13:44:17.629Z,7.76
2022-12-22T13:46:44.801Z,7.73
2022-12-22T13:49:43.330Z,7.73
2022-12-22T13:52:06.592Z,7.65
2022-12-22T13:54:37.422Z,7.63
2022-12-22T13:57:12.747Z,7.64
2022-12-22T13:59:42.051Z,7.59
2022-12-22T14:02:09.036Z,7.71
2022-12-22T14:04:42.737Z,7.60
2022-12-22T14:07:13.851Z,7.61
2022-12-22T14:09:48.707Z,7.63
2022-12-22T14:12:38.644Z,7.62
2022-12-22T14:15:12.140Z,7.69
2022-12-22T14:17:43.378Z,7.60
2022-12-22T14:20:21.879Z,7.57
2022-12-22T14:23:01.489Z,7.56
2022-12-22T14:25:37.613Z,7.43
2022-12-22T14:28:11.933Z,7.47
2022-12-22T14:30:43.924Z,7.34
2022-12-22T14:33:32.520Z,7.42
2022-12-22T14:36:26.394Z,7.46
2022-12-22T14:38:53.089Z,7.40
2022-12-22T14:41:43.313Z,7.25
2022-12-22T14:44:25.654Z,7.27
2022-12-22T14:47:22.850Z,7.10
2022-12-22T14:49:52.798Z,7.16
2022-12-22T14:52:33.310Z,7.10
2022-12-22T14:55:02.303Z,7.00
2022-12-22T14:57:36.194Z,7.03
2022-12-22T15:00:29.318Z,6.96
2022-12-22T15:02:59.455Z,6.86
2022-12-22T15:05:27.626Z,6.69
2022-12-22T15:08:07.505Z,6.56
2022-12-22T15:10:44.212Z,6.69
2022-12-22T15:13:18.904Z,6.64
2022-12-22T15:15:45.694Z,6.57
2022-12-22T15:18:15.207Z,6.54
2022-12-22T15:20:42.152Z,6.56
2022-12-22T15:23:14.743Z,6.44
2022-12-22T15:25:41.678Z,6.41
2022-12-22T15:28:09.317Z,6.38
2022-12-22T15:30:36.238Z,6.35
2022-12-22T15:33:03.269Z,6.21
2022-12-22T15:35:32.830Z,6.22
2022-12-22T15:38:00.743Z,6.23
2022-12-22T15:40:30.559Z,6.10
2022-12-22T15:42:57.299Z,6.06
2022-12-22T15:45:24.162Z,6.00
2022-12-22T15:47:53.318Z,5.96
2022-12-22T15:50:25.499Z,5.98
2022-12-22T15:52:55.124Z,6.01
2022-12-22T15:55:23.579Z,6.09
2022-12-22T15:57:55.299Z,6.07
2022-12-22T16:00:23.002Z,6.05
2022-12-22T16:02:50.341Z,6.10
2022-12-22T16:05:21.450Z,5.98
2022-12-22T16:07:48.483Z,5.97
2022-12-22T16:10:29.641Z,6.05
2022-12-22T16:13:00.539Z,5.91
2022-12-22T16:15:33.001Z,5.93
2022-12-22T16:18:01.283Z,6.01
2022-12-22T16:20:37.358Z,5.95
2022-12-22T16:23:06.585Z,5.80
2022-12-22T16:25:38.587Z,5.91
2022-12-22T16:28:06.068Z,5.84
2022-12-22T16:30:34.453Z,5.86
2022-12-22T16:33:01.359Z,5.81
2022-12-22T16:35:30.035Z,5.77
2022-12-22T16:37:58.761Z,5.79
2022-12-22T16:40:27.647Z,5.80
2022-12-22T16:45:55.014Z,5.80
2022-12-22T16:48:29.479Z,5.74
2022-12-22T16:50:56.299Z,5.74
2022-12-22T16:53:23.103Z,5.82
2022-12-22T16:55:49.942Z,5.77
2022-12-22T16:58:16.934Z,5.75
2022-12-22T17:00:45.346Z,5.71
2022-12-22T17:03:13.231Z,5.81
2022-12-22T17:05:46.265Z,5.87
2022-12-22T17:08:27.171Z,5.82
2022-12-22T17:10:56.550Z,5.78
2022-12-22T17:13:24.421Z,5.87
2022-12-22T17:15:51.298Z,5.87
2022-12-22T17:18:20.635Z,5.92
2022-12-22T17:20:50.237Z,5.86
2022-12-22T17:23:38.257Z,5.82
2022-12-22T17:26:11.312Z,5.85
2022-12-22T17:28:38.969Z,5.86
2022-12-22T17:31:06.187Z,5.87
2022-12-22T17:33:33.390Z,5.79
2022-12-22T17:36:01.335Z,5.71
2022-12-22T17:38:28.913Z,5.72
2022-12-22T17:40:57.645Z,5.77
2022-12-22T17:43:27.478Z,5.78
2022-12-22T17:45:54.243Z,5.83
2022-12-22T17:48:21.015Z,5.83
2022-12-22T17:50:50.750Z,5.84
2022-12-22T17:53:20.003Z,5.81
2022-12-22T17:58:34.718Z,5.82
2022-12-22T18:01:01.486Z,5.79
2022-12-22T18:03:28.300Z,5.82
2022-12-22T18:05:55.505Z,5.82
2022-12-22T18:08:22.309Z,5.91
2022-12-22T18:10:50.441Z,5.93
2022-12-22T18:13:25.085Z,5.95
2022-12-22T18:15:53.122Z,6.00
2022-12-22T18:18:22.111Z,6.04
2022-12-22T18:21:06.586Z,6.09
2022-12-22T18:23:38.644Z,6.14
2022-12-22T18:26:28.575Z,6.09
2022-12-22T18:28:56.258Z,6.08
2022-12-22T18:31:24.376Z,6.07
2022-12-22T18:33:51.586Z,6.11
2022-12-22T18:36:45.718Z,6.13
2022-12-22T18:39:21.048Z,6.13
2022-12-22T18:41:48.184Z,6.16
2022-12-22T18:44:17.915Z,6.23
2022-12-22T18:46:45.809Z,6.22
2022-12-22T18:49:13.074Z,6.24
2022-12-22T18:51:39.843Z,6.24
2022-12-22T18:54:21.307Z,6.28
2022-12-22T18:56:51.229Z,6.33
2022-12-22T18:59:24.201Z,6.37
2022-12-22T19:01:52.454Z,6.29
2022-12-22T19:04:19.579Z,6.26
2022-12-22T19:06:46.370Z,6.30
2022-12-22T19:09:16.319Z,6.28
2022-12-22T19:11:43.611Z,6.29
2022-12-22T19:14:18.755Z,6.29
2022-12-22T19:16:46.692Z,6.29
2022-12-22T19:19:18.918Z,6.29
2022-12-22T19:21:46.962Z,6.33
2022-12-22T19:24:13.935Z,6.35
2022-12-22T19:26:40.988Z,6.33
2022-12-22T19:29:09.874Z,6.36
2022-12-22T19:31:38.120Z,6.39
2022-12-22T19:34:10.374Z,6.38
2022-12-22T19:36:37.183Z,6.37
2022-12-22T19:39:05.851Z,6.34
2022-12-22T19:41:50.966Z,6.38
2022-12-22T19:44:27.574Z,6.36
2022-12-22T19:46:56.164Z,6.35
2022-12-22T19:49:25.307Z,6.27
2022-12-22T19:51:52.063Z,6.28
2022-12-22T19:54:22.190Z,6.31
2022-12-22T19:56:53.587Z,6.29
2022-12-22T19:59:42.018Z,6.29
2022-12-22T20:02:21.909Z,6.26
2022-12-22T20:04:50.334Z,6.34
2022-12-22T20:07:19.615Z,6.33
2022-12-22T20:09:46.772Z,6.37
2022-12-22T20:12:28.685Z,6.31
2022-12-22T20:14:56.111Z,6.37
2022-12-22T20:17:23.085Z,6.39
2022-12-22T20:19:51.696Z,6.39
2022-12-22T20:22:21.013Z,6.40
2022-12-22T20:24:49.316Z,6.54
2022-12-22T20:27:27.509Z,6.50
2022-12-22T20:29:54.562Z,6.53
2022-12-22T20:32:27.657Z,6.51
2022-12-22T20:34:55.778Z,6.54
2022-12-22T20:37:22.652Z,6.56
2022-12-22T20:39:50.006Z,6.57
2022-12-22T20:42:22.414Z,6.55
2022-12-22T20:45:03.804Z,6.56
2022-12-22T20:47:33.891Z,6.55
2022-12-22T20:50:01.554Z,6.54
2022-12-22T20:52:28.592Z,6.57
2022-12-22T20:54:55.684Z,6.59
2022-12-22T20:57:23.585Z,6.55
2022-12-22T20:59:56.038Z,6.49
2022-12-22T21:02:28.534Z,6.50
2022-12-22T21:04:58.456Z,6.48
2022-12-22T21:07:25.451Z,6.49
2022-12-22T21:09:52.211Z,6.42
2022-12-22T21:12:18.939Z,6.52
2022-12-22T21:14:45.834Z,6.45
2022-12-22T21:17:17.031Z,6.38
2022-12-22T21:19:44.511Z,6.38
2022-12-22T21:22:11.721Z,6.36
2022-12-22T21:24:38.695Z,6.30
2022-12-22T21:27:06.141Z,6.28
2022-12-22T21:29:33.051Z,6.28
2022-12-22T21:32:00.341Z,6.31
2022-12-22T21:34:27.048Z,6.25
2022-12-22T21:36:59.803Z,6.25
2022-12-22T21:39:41.635Z,6.24
2022-12-22T21:42:19.957Z,6.23
2022-12-22T21:44:47.039Z,6.19
2022-12-22T21:47:16.557Z,6.16
2022-12-22T21:49:43.464Z,6.16
2022-12-22T21:52:10.341Z,6.11
2022-12-22T21:54:37.129Z,6.12
2022-12-22T21:57:04.368Z,6.10
2022-12-22T21:59:31.224Z,6.11
2022-12-22T22:01:58.192Z,6.13
2022-12-22T22:04:25.304Z,6.12
2022-12-22T22:06:52.095Z,6.09
2022-12-22T22:09:18.966Z,6.09
2022-12-22T22:12:04.477Z,6.06
2022-12-22T22:14:31.218Z,6.04
2022-12-22T22:16:57.914Z,6.05
2022-12-22T22:19:24.680Z,6.05
2022-12-22T22:21:51.417Z,6.14
2022-12-22T22:24:18.256Z,6.08
2022-12-22T22:26:46.458Z,6.11
2022-12-22T22:29:13.281Z,6.04
2022-12-22T22:31:41.294Z,6.01
2022-12-22T22:34:08.627Z,6.00
2022-12-22T22:36:35.320Z,6.00
2022-12-22T22:39:02.129Z,6.00
2022-12-22T22:41:32.413Z,6.01
2022-12-22T22:44:01.977Z,6.00
2022-12-22T22:46:28.854Z,5.99
2022-12-22T22:48:58.495Z,5.95
2022-12-22T22:51:25.493Z,5.99
2022-12-22T22:53:52.418Z,5.98
2022-12-22T22:56:19.521Z,5.93
2022-12-22T22:58:46.501Z,5.98
2022-12-22T23:01:13.540Z,5.94
2022-12-22T23:03:40.482Z,5.99
2022-12-22T23:06:10.655Z,5.92
2022-12-22T23:08:37.879Z,5.92
2022-12-22T23:11:06.060Z,5.89
2022-12-22T23:13:32.911Z,5.93
2022-12-22T23:16:02.515Z,5.92
2022-12-22T23:18:30.709Z,5.91
2022-12-22T23:20:59.295Z,5.94
2022-12-22T23:23:26.465Z,5.94
2022-12-22T23:25:53.406Z,5.93
2022-12-22T23:28:20.335Z,5.98
2022-12-22T23:30:49.699Z,5.96
2022-12-22T23:33:17.416Z,6.00
2022-12-22T23:35:48.037Z,5.93
2022-12-22T23:38:15.857Z,5.92
2022-12-22T23:40:58.250Z,5.89
2022-12-22T23:43:25.042Z,5.90
2022-12-22T23:45:51.895Z,5.90
2022-12-22T23:48:18.920Z,5.91
2022-12-22T23:50:47.098Z,5.93
2022-12-22T23:53:14.782Z,5.91
2022-12-22T23:55:45.736Z,5.90
2022-12-22T23:58:13.014Z,5.91
